Time;durP1;ratioP1;P1;durP2;ratioP2;P2;SDS_P1;SDS_P2;PMS_P1;PMS_P2;Temp;Humidity;BMP_temperature;BMP_pressure;BME280_temperature;BME280_humidity;BME280_pressure;Samples;Min_cycle;Max_cycle;Signal;HPM_P1;HPM_P2
2021/11/12 00:02:21;;;;;;;30.93;13.50;;;;;;;-145.69;100.00;73062.28;5075209;28;20213;-77
2021/11/12 00:11:48;;;;;;;50.83;16.03;;;;;;;-145.69;100.00;73022.47;5075114;28;20226;-77
2021/11/12 00:13:13;;;;;;;42.83;17.80;;;;;;;-145.69;100.00;73036.41;5074898;28;20661;-77
2021/11/12 00:15:47;;;;;;;35.27;14.70;;;;;;;-145.69;100.00;73050.34;5074955;28;20202;-76
2021/11/12 00:18:14;;;;;;;38.67;14.60;;;;;;;-145.69;100.00;73054.31;5074599;28;20202;-77
2021/11/12 00:20:40;;;;;;;39.07;16.10;;;;;;;-145.69;100.00;73050.34;5074701;28;20199;-76
2021/11/12 00:23:08;;;;;;;36.67;14.83;;;;;;;-145.69;100.00;73058.31;5074857;28;20202;-76
2021/11/12 00:25:34;;;;;;;40.53;16.37;;;;;;;-145.69;100.00;73042.38;5074737;28;20222;-76
2021/11/12 00:28:01;;;;;;;45.03;16.57;;;;;;;-145.69;100.00;73038.41;5074674;28;20203;-76
2021/11/12 00:30:36;;;;;;;44.90;16.00;;;;;;;-145.69;100.00;73036.41;5074339;28;20210;-76
2021/11/12 00:33:10;;;;;;;53.83;18.53;;;;;;;-145.69;100.00;73016.50;5074262;28;20202;-76
2021/11/12 00:35:42;;;;;;;58.27;18.47;;;;;;;-145.69;100.00;73036.41;5074512;28;20214;-77
2021/11/12 00:38:11;;;;;;;51.97;17.37;;;;;;;-145.69;100.00;73052.34;5074442;28;20661;-77
2021/11/12 00:40:47;;;;;;;50.70;17.17;;;;;;;-145.69;100.00;73054.31;5074381;28;20198;-77
2021/11/12 00:43:28;;;;;;;45.97;17.13;;;;;;;-145.69;100.00;73066.25;5074530;28;20203;-77
2021/11/12 00:46:07;;;;;;;49.67;18.97;;;;;;;-145.69;100.00;73036.41;5074708;28;20202;-76
2021/11/12 00:48:38;;;;;;;56.00;18.97;;;;;;;-145.69;100.00;73038.41;5074015;28;20302;-76
2021/11/12 00:51:13;;;;;;;60.10;20.23;;;;;;;-145.69;100.00;73020.47;5074545;28;20206;-77
2021/11/12 00:53:42;;;;;;;59.47;19.23;;;;;;;-145.69;100.00;73028.44;5073857;28;20226;-76
2021/11/12 00:56:09;;;;;;;57.60;18.37;;;;;;;-145.69;100.00;73034.41;5074290;28;20215;-76
2021/11/12 00:58:36;;;;;;;57.43;18.10;;;;;;;-145.69;100.00;73044.38;5074242;28;20199;-76
2021/11/12 01:01:04;;;;;;;71.45;26.60;;;;;;;-145.69;100.00;73050.34;5073076;28;20479;-76
2021/11/12 01:03:31;;;;;;;56.10;20.83;;;;;;;-145.69;100.00;73054.31;5073856;28;20546;-76
2021/11/12 01:05:59;;;;;;;49.97;17.33;;;;;;;-145.69;100.00;73064.28;5073691;28;20565;-75
2021/11/12 01:08:25;;;;;;;44.97;16.37;;;;;;;-145.69;100.00;73072.25;5073148;28;20607;-76
2021/11/12 01:10:51;;;;;;;46.17;16.77;;;;;;;-145.69;100.00;73080.19;5073995;28;20206;-76
2021/11/12 01:13:18;;;;;;;56.80;19.20;;;;;;;-145.69;100.00;73052.34;5073885;28;20194;-77
2021/11/12 01:15:44;;;;;;;63.20;20.80;;;;;;;-145.69;100.00;73046.34;5073780;28;20206;-77
2021/11/12 01:18:11;;;;;;;58.37;17.97;;;;;;;-145.69;100.00;73058.31;5073558;28;20711;-77
2021/11/12 01:20:38;;;;;;;53.40;18.20;;;;;;;-145.69;100.00;73078.22;5073786;28;20207;-76
2021/11/12 01:23:06;;;;;;;46.90;16.00;;;;;;;-145.69;100.00;73094.13;5073558;28;20206;-76
2021/11/12 01:25:33;;;;;;;44.33;15.83;;;;;;;-145.69;100.00;73098.13;5073487;28;20252;-77
2021/11/12 01:28:00;;;;;;;49.97;17.50;;;;;;;-145.69;100.00;73086.19;5072782;28;20209;-76
2021/11/12 01:30:27;;;;;;;51.50;18.20;;;;;;;-145.69;100.00;73096.13;5073670;28;20210;-76
2021/11/12 01:32:53;;;;;;;63.97;19.17;;;;;;;-145.69;100.00;73058.31;5073462;28;20207;-77
2021/11/12 01:35:21;;;;;;;50.00;17.60;;;;;;;-145.69;100.00;73072.25;5073387;28;20214;-77
2021/11/12 01:37:47;;;;;;;45.67;16.63;;;;;;;-145.69;100.00;73076.22;5073229;28;20661;-76
2021/11/12 01:40:21;;;;;;;63.93;21.73;;;;;;;-145.69;100.00;73026.44;5073925;28;20199;-76
2021/11/12 01:43:02;;;;;;;90.40;25.13;;;;;;;-145.69;100.00;72992.59;5073527;28;20210;-76
2021/11/12 01:45:38;;;;;;;72.67;22.97;;;;;;;-145.69;100.00;72998.59;5073219;28;20230;-76
2021/11/12 01:48:17;;;;;;;77.20;22.87;;;;;;;-145.69;100.00;72994.59;5073248;28;20222;-76
2021/11/12 01:50:46;;;;;;;57.83;19.73;;;;;;;-145.69;100.00;73020.47;5073422;28;20199;-76
2021/11/12 01:53:24;;;;;;;67.67;22.50;;;;;;;-145.69;100.00;73028.44;5073155;28;20203;-76
2021/11/12 01:56:07;;;;;;;52.93;19.13;;;;;;;-145.69;100.00;73050.34;5073244;28;20205;-77
2021/11/12 01:58:50;;;;;;;68.67;21.13;;;;;;;-145.69;100.00;73040.38;5073492;28;20259;-76
2021/11/12 02:01:16;;;;;;;69.70;22.37;;;;;;;-145.69;100.00;73024.47;5073371;28;20226;-77
2021/11/12 02:03:43;;;;;;;82.37;25.00;;;;;;;-145.69;100.00;73030.44;5073052;28;20559;-76
2021/11/12 02:06:12;;;;;;;81.50;23.53;;;;;;;-145.69;100.00;73022.47;5073089;28;20207;-76
2021/11/12 02:08:38;;;;;;;87.53;24.23;;;;;;;-145.69;100.00;72996.59;5072839;28;20622;-76
2021/11/12 02:11:06;;;;;;;97.63;28.43;;;;;;;-145.69;100.00;72982.66;5073213;28;20309;-76
2021/11/12 02:13:35;;;;;;;108.30;31.13;;;;;;;-145.69;100.00;72970.72;5073271;28;20202;-76
2021/11/12 02:16:04;;;;;;;88.90;26.30;;;;;;;-145.69;100.00;73000.56;5072849;28;20657;-76
2021/11/12 02:18:35;;;;;;;73.50;24.83;;;;;;;-145.69;100.00;73010.53;5072908;28;20268;-77
2021/11/12 02:21:09;;;;;;;73.87;24.10;;;;;;;-145.69;100.00;73014.50;5076279;28;20198;-76
2021/11/12 02:23:36;;;;;;;68.33;22.03;;;;;;;-145.69;100.00;73032.44;5077306;28;20203;-76
2021/11/12 02:26:04;;;;;;;105.43;34.25;;;;;;;-145.69;100.00;73038.41;5076238;28;20924;-76
2021/11/12 02:28:31;;;;;;;107.00;29.67;;;;;;;-145.69;100.00;73012.53;5076637;28;20653;-76
2021/11/12 02:30:58;;;;;;;104.63;28.47;;;;;;;-145.69;100.00;73008.53;5076958;28;20289;-77
2021/11/12 02:33:26;;;;;;;115.50;29.80;;;;;;;-145.69;100.00;72992.59;5076806;28;20198;-77
2021/11/12 02:36:01;;;;;;;120.43;29.67;;;;;;;-145.69;100.00;72984.66;5076833;28;20213;-76
2021/11/12 02:38:31;;;;;;;154.37;35.83;;;;;;;-145.69;100.00;72930.91;5076901;28;20198;-77
2021/11/12 02:40:58;;;;;;;145.17;35.00;;;;;;;-145.69;100.00;72936.88;5077156;28;20198;-77
2021/11/12 02:43:25;;;;;;;114.80;30.33;;;;;;;-145.69;100.00;72950.81;5076577;28;20324;-77
2021/11/12 02:45:54;;;;;;;98.67;26.57;;;;;;;-145.69;100.00;72974.69;5076483;28;20253;-77
2021/11/12 02:48:21;;;;;;;94.33;27.43;;;;;;;-145.69;100.00;72982.66;5076728;28;20203;-77
2021/11/12 02:50:47;;;;;;;95.80;25.53;;;;;;;-145.69;100.00;72990.63;5076804;28;20207;-77
2021/11/12 02:53:16;;;;;;;80.07;25.70;;;;;;;-145.69;100.00;73006.53;5076433;28;20209;-76
2021/11/12 02:55:45;;;;;;;91.87;26.37;;;;;;;-145.69;100.00;73028.44;5076469;28;20206;-77
2021/11/12 02:58:13;;;;;;;67.67;22.03;;;;;;;-145.69;100.00;73034.41;5076355;28;20629;-76
2021/11/12 03:00:41;;;;;;;85.30;23.93;;;;;;;-145.69;100.00;73038.41;5076227;28;20203;-76
2021/11/12 03:03:07;;;;;;;108.97;27.47;;;;;;;-145.69;100.00;73014.50;5076229;28;20222;-76
2021/11/12 03:05:34;;;;;;;117.50;30.43;;;;;;;-145.69;100.00;72994.59;5076247;28;20249;-77
2021/11/12 03:08:01;;;;;;;106.47;29.90;;;;;;;-145.69;100.00;72986.63;5076056;28;20206;-77
2021/11/12 03:10:27;;;;;;;70.30;23.03;;;;;;;-145.69;100.00;72998.59;5075903;28;20198;-77
2021/11/12 03:12:55;;;;;;;96.60;26.47;;;;;;;-145.69;100.00;72996.59;5075795;28;20233;-78
2021/11/12 03:15:22;;;;;;;117.20;28.17;;;;;;;-145.69;100.00;72966.72;5075685;28;20203;-77
2021/11/12 03:17:53;;;;;;;92.27;27.73;;;;;;;-145.69;100.00;72984.66;5075966;28;20198;-77
2021/11/12 03:20:20;;;;;;;131.70;32.90;;;;;;;-145.69;100.00;72938.88;5076023;28;20199;-77
2021/11/12 03:22:52;;;;;;;150.40;35.63;;;;;;;-145.69;100.00;72926.91;5076265;28;20205;-77
2021/11/12 03:25:26;;;;;;;122.90;31.60;;;;;;;-145.69;100.00;72952.78;5075985;28;20619;-76
2021/11/12 03:28:04;;;;;;;127.43;30.90;;;;;;;-145.69;100.00;72954.78;5075877;28;20205;-77
2021/11/12 03:31:09;;;;;;;123.23;31.43;;;;;;;-145.69;100.00;72960.75;5075738;28;20207;-76
2021/11/12 04:04:17;;;;;;;169.43;35.07;;;;;;;-145.69;100.00;72944.84;5074117;28;20252;-77
2021/11/12 04:06:48;;;;;;;145.00;33.33;;;;;;;-145.69;100.00;72952.78;5073949;28;20202;-77
2021/11/12 04:17:37;;;;;;;126.93;29.33;;;;;;;-145.69;100.00;72998.59;5073808;28;20202;-76
2021/11/12 04:20:17;;;;;;;150.00;33.93;;;;;;;-145.69;100.00;72952.78;5073812;28;20252;-76
2021/11/12 04:49:14;;;;;;;115.97;28.17;;;;;;;-145.69;100.00;73016.50;5072954;28;20239;-76
2021/11/12 05:09:59;;;;;;;129.13;29.63;;;;;;;-145.69;100.00;72994.59;5031743;28;20195;-76
2021/11/12 05:12:48;;;;;;;149.07;31.17;;;;;;;-145.69;100.00;72980.66;5059871;28;20669;-76
2021/11/12 05:45:32;;;;;;;182.10;32.93;;;;;;;-145.69;100.00;72922.94;5073811;28;20253;-75
2021/11/12 05:50:57;;;;;;;186.67;36.37;;;;;;;-145.69;100.00;72875.16;5073561;28;20672;-76
2021/11/12 05:56:08;;;;;;;241.13;45.07;;;;;;;-145.69;100.00;72899.06;5072832;28;20501;-76
2021/11/12 05:58:36;;;;;;;199.53;34.07;;;;;;;-145.69;100.00;72911.00;5073264;28;20234;-76
2021/11/12 06:01:03;;;;;;;180.63;30.90;;;;;;;-145.69;100.00;72918.97;5073079;28;20205;-76
2021/11/12 06:03:30;;;;;;;143.13;27.73;;;;;;;-145.69;100.00;72934.88;5073152;28;20237;-76
2021/11/12 06:05:57;;;;;;;144.37;27.97;;;;;;;-145.69;100.00;72960.75;5073015;28;20713;-76
2021/11/12 06:08:23;;;;;;;134.37;26.07;;;;;;;-145.69;100.00;72966.72;5073187;28;20222;-76
2021/11/12 06:10:50;;;;;;;153.43;27.73;;;;;;;-145.69;100.00;72934.88;5073309;28;20203;-76
2021/11/12 06:13:17;;;;;;;173.37;28.30;;;;;;;-145.69;100.00;72928.91;5073087;28;20199;-76
2021/11/12 06:15:44;;;;;;;147.40;27.47;;;;;;;-145.69;100.00;72946.81;5073201;28;20203;-76
2021/11/12 06:18:11;;;;;;;133.63;27.37;;;;;;;-145.69;100.00;72944.84;5072994;28;20236;-76
2021/11/12 06:20:38;;;;;;;140.60;26.47;;;;;;;-145.69;100.00;72932.91;5072962;28;20225;-76
2021/11/12 06:23:05;;;;;;;107.57;23.67;;;;;;;-145.69;100.00;72946.81;5072587;28;20206;-76
2021/11/12 06:25:32;;;;;;;114.07;23.23;;;;;;;-145.69;100.00;72958.78;5072755;28;20295;-77
2021/11/12 06:27:59;;;;;;;140.43;25.70;;;;;;;-145.69;100.00;72924.94;5073038;28;20206;-76
2021/11/12 06:30:25;;;;;;;137.80;24.40;;;;;;;-145.69;100.00;72930.91;5073119;28;20201;-76
2021/11/12 06:32:53;;;;;;;170.97;27.90;;;;;;;-145.69;100.00;72916.97;5072825;28;20199;-76
2021/11/12 06:35:19;;;;;;;162.23;28.53;;;;;;;-145.69;100.00;72873.19;5072660;28;20688;-77
2021/11/12 06:37:46;;;;;;;173.83;31.43;;;;;;;-145.69;100.00;72871.19;5072687;28;20233;-76
2021/11/12 06:40:18;;;;;;;147.70;30.60;;;;;;;-145.69;100.00;72893.09;5072982;28;20214;-77
2021/11/12 06:42:59;;;;;;;152.40;31.23;;;;;;;-145.69;100.00;72855.25;5072832;28;20205;-76
2021/11/12 06:50:55;;;;;;;157.97;31.33;;;;;;;-145.69;100.00;72857.25;5072640;28;20201;-77
2021/11/12 06:53:21;;;;;;;158.37;30.73;;;;;;;-145.69;100.00;72865.22;5072423;28;20272;-77
2021/11/12 06:55:49;;;;;;;137.03;27.47;;;;;;;-145.69;100.00;72879.16;5072618;28;20207;-77
2021/11/12 06:58:16;;;;;;;156.27;28.83;;;;;;;-145.69;100.00;72877.16;5072592;28;20195;-77
2021/11/12 07:00:42;;;;;;;116.57;24.83;;;;;;;-145.69;100.00;72879.16;5072370;28;20203;-77
2021/11/12 07:03:10;;;;;;;134.83;25.27;;;;;;;-145.69;100.00;72871.19;5072511;28;20206;-76
2021/11/12 07:05:37;;;;;;;136.43;24.87;;;;;;;-145.69;100.00;72867.19;5073248;28;20226;-77
2021/11/12 07:08:03;;;;;;;145.23;25.03;;;;;;;-145.69;100.00;72857.25;5076218;28;20206;-77
2021/11/12 07:10:30;;;;;;;131.97;24.23;;;;;;;-145.69;100.00;72847.28;5076232;28;20206;-76
2021/11/12 07:12:57;;;;;;;112.07;23.83;;;;;;;-145.69;100.00;72845.31;5075925;28;20657;-76
2021/11/12 07:15:23;;;;;;;112.30;22.10;;;;;;;-145.69;100.00;72845.31;5076364;28;20600;-76
2021/11/12 07:17:49;;;;;;;98.30;21.33;;;;;;;-145.69;100.00;72853.28;5076374;28;20206;-77
2021/11/12 07:20:17;;;;;;;99.97;19.57;;;;;;;-145.69;100.00;72845.31;5075990;28;20233;-76
2021/11/12 07:22:44;;;;;;;90.70;18.23;;;;;;;-145.69;100.00;72839.34;5075897;28;20293;-76
2021/11/12 07:25:11;;;;;;;78.10;16.00;;;;;;;-145.69;100.00;72835.34;5075505;28;20207;-76
2021/11/12 07:27:37;;;;;;;81.17;17.20;;;;;;;-145.69;100.00;72835.34;5075554;28;20195;-77
2021/11/12 07:30:07;;;;;;;106.23;21.03;;;;;;;-145.69;100.00;72831.38;5075396;28;20285;-76
2021/11/12 07:32:33;;;;;;;117.50;21.93;;;;;;;-145.69;100.00;72823.41;5075976;28;20198;-76
2021/11/12 07:35:00;;;;;;;122.17;21.30;;;;;;;-145.69;100.00;72823.41;5076115;28;20205;-77
2021/11/12 07:37:30;;;;;;;112.63;21.53;;;;;;;-145.69;100.00;72795.53;5076032;28;20596;-76
2021/11/12 07:39:59;;;;;;;99.07;22.13;;;;;;;-145.69;100.00;72791.56;5075683;28;20719;-76
2021/11/12 07:42:37;;;;;;;107.03;20.63;;;;;;;-145.69;100.00;72791.56;5076111;28;20294;-76
2021/11/12 07:45:19;;;;;;;106.57;21.17;;;;;;;-145.69;100.00;72783.59;5075896;28;20546;-76
2021/11/12 07:47:46;;;;;;;89.03;19.33;;;;;;;-145.69;100.00;72777.63;5075632;28;20202;-76
2021/11/12 07:50:13;;;;;;;61.07;15.00;;;;;;;-145.69;100.00;72767.69;5075658;28;20253;-77
2021/11/12 07:52:41;;;;;;;65.23;14.57;;;;;;;-145.69;100.00;72759.72;5075268;28;20202;-77
2021/11/12 07:55:09;;;;;;;55.37;13.90;;;;;;;-145.69;100.00;72755.72;5075448;28;20241;-77
2021/11/12 07:57:36;;;;;;;71.90;15.07;;;;;;;-145.69;100.00;72745.78;5075186;28;20704;-76
2021/11/12 08:00:05;;;;;;;64.77;15.07;;;;;;;-145.69;100.00;72731.84;5075452;28;20206;-77
2021/11/12 08:02:31;;;;;;;77.00;16.20;;;;;;;-145.69;100.00;72721.88;5075355;28;20205;-77
2021/11/12 08:05:01;;;;;;;68.10;15.67;;;;;;;-145.69;100.00;72703.97;5075115;28;20194;-77
2021/11/12 08:07:32;;;;;;;63.37;14.00;;;;;;;-145.69;100.00;72705.97;5075511;28;20582;-76
2021/11/12 08:10:02;;;;;;;44.83;13.43;;;;;;;-145.69;100.00;72719.91;5075235;28;20202;-77
2021/11/12 08:12:32;;;;;;;47.83;13.23;;;;;;;-145.69;100.00;72711.94;5075290;28;20199;-77
2021/11/12 08:15:10;;;;;;;50.83;13.10;;;;;;;-145.69;100.00;72709.94;5075265;28;20226;-77
2021/11/12 08:17:42;;;;;;;52.07;13.67;;;;;;;-145.69;100.00;72707.97;5073788;28;20248;-77
2021/11/12 08:20:15;;;;;;;70.90;16.50;;;;;;;-145.69;100.00;72707.97;5075203;28;20207;-77
2021/11/12 08:22:45;;;;;;;163.70;31.00;;;;;;;-145.69;100.00;72678.09;5075024;28;20199;-78
2021/11/12 08:25:20;;;;;;;87.70;21.50;;;;;;;-145.69;100.00;72664.16;5074741;28;20236;-77
2021/11/12 08:28:03;;;;;;;118.70;23.73;;;;;;;-145.69;100.00;72640.28;5074723;28;20206;-77
2021/11/12 08:33:26;;;;;;;86.83;18.87;;;;;;;-145.69;100.00;72606.44;5074451;28;20565;-77
2021/11/12 08:36:05;;;;;;;73.00;16.27;;;;;;;-145.69;100.00;72598.47;5074573;28;20202;-77
2021/11/12 08:38:39;;;;;;;108.70;26.17;;;;;;;-145.69;100.00;72580.56;5074330;28;20202;-77
2021/11/12 08:41:10;;;;;;;93.63;23.43;;;;;;;-145.69;100.00;72560.66;5074707;28;20203;-76
2021/11/12 08:43:39;;;;;;;125.57;26.87;;;;;;;-145.69;100.00;72544.75;5074302;28;20248;-76
2021/11/12 08:46:13;;;;;;;107.63;23.60;;;;;;;-145.69;100.00;72532.78;5074131;28;20223;-77
2021/11/12 08:48:53;;;;;;;110.73;27.20;;;;;;;-145.69;100.00;72528.81;5074071;28;20202;-78
2021/11/12 08:51:23;;;;;;;120.57;28.03;;;;;;;-145.69;100.00;72512.91;5074441;28;20194;-77
2021/11/12 08:53:51;;;;;;;102.17;26.43;;;;;;;-145.69;100.00;72502.94;5074087;28;20222;-78
2021/11/12 08:56:19;;;;;;;139.73;29.93;;;;;;;-145.69;100.00;72485.03;5074255;28;20235;-77
2021/11/12 08:58:50;;;;;;;132.77;29.23;;;;;;;-145.69;100.00;72467.13;5073926;28;20198;-77
2021/11/12 09:01:17;;;;;;;127.83;27.73;;;;;;;-145.69;100.00;72449.19;5074126;28;20209;-78
2021/11/12 09:03:44;;;;;;;118.07;26.60;;;;;;;-145.69;100.00;72429.28;5074360;28;20199;-78
2021/11/12 09:06:10;;;;;;;112.77;29.10;;;;;;;-145.69;100.00;72419.34;5074043;28;20230;-78
2021/11/12 09:08:39;;;;;;;116.93;28.03;;;;;;;-145.69;100.00;72399.44;5073917;28;20199;-78
2021/11/12 09:11:08;;;;;;;96.87;26.23;;;;;;;-145.69;100.00;72393.47;5073876;28;20207;-77
2021/11/12 09:13:41;;;;;;;113.27;26.93;;;;;;;-145.69;100.00;72379.53;5073662;28;20666;-79
2021/11/12 09:16:10;;;;;;;102.80;29.63;;;;;;;-145.69;100.00;72359.63;5070988;28;20523;-80
2021/11/12 09:18:37;;;;;;;118.90;34.23;;;;;;;-145.69;100.00;72341.72;5059100;28;20203;-80
2021/11/12 09:21:04;;;;;;;92.10;30.33;;;;;;;-145.69;100.00;72325.81;5053573;28;20626;-81
2021/11/12 09:23:30;;;;;;;74.40;23.07;;;;;;;-145.69;100.00;72305.91;5053556;28;20204;-79
2021/11/12 09:25:57;;;;;;;61.23;20.23;;;;;;;-145.69;100.00;72289.97;5053638;28;20226;-79
2021/11/12 09:28:23;;;;;;;55.97;17.83;;;;;;;-145.69;100.00;72274.06;5068101;28;20195;-79
2021/11/12 09:30:51;;;;;;;45.30;16.63;;;;;;;-145.69;100.00;72268.06;5073780;28;20272;-76
2021/11/12 09:33:17;;;;;;;61.10;18.80;;;;;;;-145.69;100.00;72258.13;5073166;28;20205;-80
2021/11/12 09:35:44;;;;;;;49.53;18.60;;;;;;;-145.69;100.00;72248.19;5073010;28;20464;-80
2021/11/12 09:38:12;;;;;;;48.20;17.30;;;;;;;-145.69;100.00;72242.22;5073596;28;20202;-79
2021/11/12 09:40:39;;;;;;;36.53;15.40;;;;;;;-145.69;100.00;72234.25;5073351;28;20199;-79
2021/11/12 09:43:06;;;;;;;40.33;15.50;;;;;;;-145.69;100.00;72214.34;5073272;28;20244;-80
2021/11/12 09:45:32;;;;;;;34.93;14.07;;;;;;;-145.69;100.00;72204.38;5073481;28;20210;-80
2021/11/12 09:48:00;;;;;;;34.97;13.60;;;;;;;-145.69;100.00;72194.44;5073269;28;20226;-79
2021/11/12 09:50:29;;;;;;;29.43;13.67;;;;;;;-145.69;100.00;72162.59;5073285;28;20207;-80
2021/11/12 09:52:58;;;;;;;29.27;12.47;;;;;;;-145.69;100.00;72154.63;5072983;28;20198;-79
2021/11/12 09:55:25;;;;;;;26.20;12.03;;;;;;;-145.69;100.00;72144.69;5069729;28;20370;-80
2021/11/12 09:57:52;;;;;;;32.47;13.67;;;;;;;-145.69;100.00;72132.75;5072771;28;20669;-79
2021/11/12 10:00:23;;;;;;;30.00;13.73;;;;;;;-145.69;100.00;72126.78;5071561;28;20202;-80
2021/11/12 10:02:51;;;;;;;28.87;12.47;;;;;;;-145.69;100.00;72126.78;5071720;28;20191;-79
2021/11/12 10:05:33;;;;;;;31.23;12.43;;;;;;;-145.69;100.00;72122.78;5071472;28;20191;-79
2021/11/12 10:08:00;;;;;;;27.10;12.50;;;;;;;-145.69;100.00;72098.91;5069804;28;20256;-80
2021/11/12 10:10:28;;;;;;;29.93;12.50;;;;;;;-145.69;100.00;72086.97;5072130;28;20191;-80
2021/11/12 10:12:55;;;;;;;28.97;13.10;;;;;;;-145.69;100.00;72071.03;5071782;28;20210;-80
2021/11/12 10:15:25;;;;;;;30.37;12.67;;;;;;;-145.69;100.00;72071.03;5070315;28;20210;-79
2021/11/12 10:17:53;;;;;;;29.70;12.20;;;;;;;-145.69;100.00;72055.13;5071057;28;20241;-80
2021/11/12 10:20:23;;;;;;;33.10;12.93;;;;;;;-145.69;100.00;72045.16;5071377;28;20245;-80
2021/11/12 10:22:52;;;;;;;29.73;12.93;;;;;;;-145.69;100.00;72027.25;5072407;28;20198;-79
2021/11/12 10:25:21;;;;;;;27.80;12.80;;;;;;;-145.69;100.00;72019.31;5072440;28;20198;-79
2021/11/12 10:27:51;;;;;;;25.83;12.17;;;;;;;-145.69;100.00;72003.38;5072548;28;20226;-80
2021/11/12 10:30:23;;;;;;;29.97;12.43;;;;;;;-145.69;100.00;71977.50;5072678;28;20202;-80
2021/11/12 10:32:50;;;;;;;25.30;11.10;;;;;;;-145.69;100.00;71949.66;5072801;28;20648;-79
2021/11/12 10:35:23;;;;;;;26.57;11.63;;;;;;;-145.69;100.00;71907.84;5072688;28;20210;-80
2021/11/12 10:37:50;;;;;;;22.03;10.40;;;;;;;-145.69;100.00;71840.19;5072796;28;20207;-80
2021/11/12 10:40:19;;;;;;;22.07;11.20;;;;;;;-145.69;100.00;71836.22;5073239;28;20202;-79
2021/11/12 10:42:47;;;;;;;21.60;9.40;;;;;;;-145.69;100.00;71828.25;5076822;28;20203;-79
2021/11/12 10:45:16;;;;;;;18.60;8.70;;;;;;;-145.69;100.00;71808.34;5076771;28;20614;-79
2021/11/12 10:47:49;;;;;;;19.37;7.80;;;;;;;-145.69;100.00;71782.47;5076232;28;20230;-80
2021/11/12 10:50:17;;;;;;;21.17;9.53;;;;;;;-145.69;100.00;71768.53;5076649;28;20206;-80
2021/11/12 10:52:45;;;;;;;22.47;10.53;;;;;;;-145.69;100.00;71770.53;5076576;28;20202;-80
2021/11/12 10:55:16;;;;;;;24.60;12.77;;;;;;;-145.69;100.00;71760.59;5076109;28;20226;-79
2021/11/12 10:57:49;;;;;;;27.20;12.83;;;;;;;-145.69;100.00;71746.66;5076487;28;20291;-80
2021/11/12 11:00:21;;;;;;;27.47;12.83;;;;;;;-145.69;100.00;71732.72;5075969;28;20565;-79
2021/11/12 11:02:50;;;;;;;29.67;14.17;;;;;;;-145.69;100.00;71736.72;5076287;28;20199;-79
2021/11/12 11:05:20;;;;;;;28.60;12.27;;;;;;;-145.69;98.36;71726.75;5076260;28;20210;-80
2021/11/12 11:07:51;;;;;;;27.27;13.17;;;;;;;-145.69;100.00;71728.75;5076001;28;20226;-80
2021/11/12 11:10:36;;;;;;;25.50;13.00;;;;;;;-145.69;100.00;71718.78;5076158;28;20203;-78
2021/11/12 11:13:09;;;;;;;29.93;13.07;;;;;;;-145.69;100.00;71706.84;5076116;28;20198;-79
2021/11/12 11:15:38;;;;;;;30.03;12.63;;;;;;;-145.69;100.00;71694.91;5075827;28;20198;-78
2021/11/12 11:18:24;;;;;;;27.27;13.30;;;;;;;-145.69;97.12;71677.00;5073640;28;20203;-78
2021/11/12 11:20:58;;;;;;;25.80;13.50;;;;;;;-145.69;97.20;71661.09;5070692;28;20260;-78
2021/11/12 11:23:27;;;;;;;27.37;12.97;;;;;;;-145.69;96.73;71655.13;5056103;28;20302;-79
2021/11/12 11:25:55;;;;;;;25.40;11.90;;;;;;;-145.69;95.44;71635.22;5056453;28;20562;-79
2021/11/12 11:28:22;;;;;;;23.63;12.00;;;;;;;-145.69;94.16;71621.28;5055958;28;20357;-79
2021/11/12 11:30:49;;;;;;;26.57;12.27;;;;;;;-145.69;91.81;71611.34;5056335;28;20245;-79
2021/11/12 11:33:16;;;;;;;25.90;11.77;;;;;;;-145.69;95.68;71601.38;5055829;28;20230;-79
2021/11/12 11:35:45;;;;;;;23.17;11.57;;;;;;;-145.69;91.18;71587.47;5056048;28;20207;-79
2021/11/12 11:38:14;;;;;;;26.65;12.75;;;;;;;-145.69;90.88;71575.50;5072838;28;20226;-79
2021/11/12 11:40:45;;;;;;;25.97;13.07;;;;;;;-145.69;93.77;71563.56;5075669;28;20695;-79
2021/11/12 11:43:13;;;;;;;27.85;12.52;;;;;;;-145.69;91.79;71561.59;5075202;28;20202;-80
2021/11/12 11:45:40;;;;;;;28.00;12.40;;;;;;;-145.69;88.94;71551.63;5075398;28;20281;-78
2021/11/12 11:48:07;;;;;;;24.97;12.47;;;;;;;-145.69;90.20;71557.59;5075119;28;20268;-76
2021/11/12 11:50:34;;;;;;;26.60;12.98;;;;;;;-145.69;94.72;71555.63;5075479;28;20206;-76
2021/11/12 11:53:20;;;;;;;25.20;10.93;;;;;;;-145.69;92.81;71545.66;5074896;28;20199;-78
2021/11/12 11:55:48;;;;;;;24.50;11.27;;;;;;;-145.69;87.20;71523.78;5074993;28;20562;-77
2021/11/12 11:58:31;;;;;;;23.02;11.93;;;;;;;-145.69;88.85;71521.78;5075147;28;20293;-79
2021/11/12 12:01:11;;;;;;;23.80;12.02;;;;;;;-145.69;91.74;71517.81;5074892;28;20202;-79
2021/11/12 12:03:37;;;;;;;27.10;12.20;;;;;;;-145.69;89.99;71509.84;5075334;28;20259;-79
2021/11/12 12:06:07;;;;;;;26.85;12.80;;;;;;;-145.69;87.18;71499.91;5075223;28;20195;-79
2021/11/12 12:08:34;;;;;;;30.60;12.05;;;;;;;-145.69;89.25;71482.00;5075105;28;20226;-79
2021/11/12 12:11:19;;;;;;;24.83;10.85;;;;;;;-145.69;88.46;71480.00;5074820;28;20207;-79
2021/11/12 12:13:46;;;;;;;23.17;12.05;;;;;;;-145.69;90.86;71458.09;5074664;28;20290;-79
2021/11/12 12:16:22;;;;;;;27.77;12.73;;;;;;;-145.69;90.96;71450.16;5074980;28;20199;-78
2021/11/12 12:18:49;;;;;;;24.52;11.73;;;;;;;-145.69;83.18;71436.22;5074652;28;20198;-79
2021/11/12 12:36:20;;;;;;;28.60;11.63;;;;;;;-145.69;81.57;71400.41;5061210;28;20557;-79
2021/11/12 13:20:22;;;;;;;18.83;8.80;;;;;;;-145.69;75.65;71223.31;5073326;28;20206;-81
2021/11/12 13:22:56;;;;;;;24.13;9.68;;;;;;;-145.69;75.58;71195.47;5073065;28;20206;-81
2021/11/12 13:25:35;;;;;;;20.05;9.73;;;;;;;-145.69;76.61;71165.59;5073600;28;20194;-80
2021/11/12 13:28:17;;;;;;;25.55;10.68;;;;;;;-145.69;73.33;71143.72;5073087;28;20719;-81
2021/11/12 13:30:48;;;;;;;20.63;11.20;;;;;;;-145.69;74.51;71135.75;5073199;28;20206;-81
2021/11/12 13:33:43;;;;;;;27.52;11.90;;;;;;;-145.69;73.87;71117.84;5073495;28;20600;-80
2021/11/12 13:36:19;;;;;;;29.33;14.52;;;;;;;-145.69;72.76;71143.72;5072986;28;20206;-79
2021/11/12 13:38:49;;;;;;;28.08;14.13;;;;;;;-145.69;71.62;71161.63;5073170;28;20210;-80
2021/11/12 13:41:19;;;;;;;24.70;12.80;;;;;;;-145.69;72.21;71113.88;5072569;28;20253;-79
2021/11/12 13:43:48;;;;;;;26.88;13.63;;;;;;;-145.69;70.80;71111.88;5073231;28;20202;-80
2021/11/12 13:46:15;;;;;;;27.27;13.13;;;;;;;-145.69;71.90;71103.94;5073178;28;20540;-80
2021/11/12 13:48:45;;;;;;;23.95;11.82;;;;;;;-145.69;67.00;71008.41;5073269;28;20231;-78
2021/11/12 13:51:14;;;;;;;24.25;12.68;;;;;;;-145.69;59.36;70791.56;5073027;28;20206;-78
2021/11/12 13:53:41;;;;;;;23.67;11.65;;;;;;;-145.69;53.67;70608.53;5072836;28;20715;-78
2021/11/12 13:56:10;;;;;;;19.73;9.77;;;;;;;-145.69;48.67;70483.19;5073064;28;20211;-78
2021/11/12 13:58:37;;;;;;;18.10;10.10;;;;;;;-145.69;47.25;70515.00;5073008;28;20206;-78
2021/11/12 14:01:15;;;;;;;18.60;9.30;;;;;;;-145.69;45.92;70419.53;5072858;28;20194;-78
2021/11/12 14:03:42;;;;;;;19.42;10.52;;;;;;;-145.69;46.66;70507.06;5073173;28;20206;-79
2021/11/12 14:06:13;;;;;;;24.45;10.35;;;;;;;-145.69;47.83;70417.53;5072816;28;20561;-79
2021/11/12 14:08:42;;;;;;;22.33;10.55;;;;;;;-145.69;44.26;70337.97;5072909;28;20249;-79
2021/11/12 14:11:22;;;;;;;20.88;10.80;;;;;;;-145.69;42.96;70310.09;5072594;28;20205;-79
2021/11/12 14:13:56;;;;;;;19.80;10.02;;;;;;;-145.69;42.72;70322.03;5072780;28;20290;-79
2021/11/12 14:16:30;;;;;;;18.45;9.55;;;;;;;-145.69;43.35;70300.16;5076550;28;20244;-79
2021/11/12 14:21:51;;;;;;;20.38;10.90;;;;;;;-145.69;46.30;70507.06;5077659;28;20615;-79